Terminal Aerodrome Forecast
Issued by NWS

Home | Current Version | Previous Version | Text Only | Print | Product List | Glossary On
Versions: 1 2 3 4 5 6 7 8 9 10 11 12
370
FTAK31 PAJN 060538
TAFASI
TAF
PASI 060538Z 0606/0706 11008KT P6SM SCT050
      TEMPO 0606/0610 BKN030 OVC050
     FM061200 20006KT P6SM -SHRA BKN030 OVC050
     FM061500 19007KT P6SM VCSH SCT070 BKN100
     FM062000 21006KT P6SM BKN070 BKN100
     FM070300 11008KT P6SM BKN070 BKN100=

USA.gov is the U.S. government's official web portal to all federal, state and local government web resources and services.